createdAt,value
2022-12-11T00:00:12.119Z,29.33
2022-12-11T00:02:38.869Z,30.60
2022-12-11T00:05:06.151Z,25.25
2022-12-11T00:07:34.138Z,27.33
2022-12-11T00:10:01.082Z,32.00
2022-12-11T00:12:29.264Z,30.08
2022-12-11T00:14:57.298Z,31.87
2022-12-11T00:17:24.082Z,28.05
2022-12-11T00:19:50.686Z,34.20
2022-12-11T00:22:17.265Z,29.83
2022-12-11T00:24:43.873Z,27.65
2022-12-11T00:27:10.460Z,31.33
2022-12-11T00:29:37.129Z,32.00
2022-12-11T00:32:05.380Z,32.47
2022-12-11T00:34:31.998Z,32.33
2022-12-11T00:36:58.609Z,28.35
2022-12-11T00:39:25.242Z,31.10
2022-12-11T00:41:51.799Z,30.92
2022-12-11T00:44:18.412Z,27.77
2022-12-11T00:46:44.981Z,29.85
2022-12-11T00:49:12.955Z,29.20
2022-12-11T00:51:39.581Z,29.10
2022-12-11T00:54:06.220Z,31.77
2022-12-11T00:56:32.801Z,30.23
2022-12-11T00:58:59.502Z,31.27
2022-12-11T01:01:26.130Z,30.60
2022-12-11T01:03:53.956Z,32.03
2022-12-11T01:06:23.842Z,35.08
2022-12-11T01:08:51.343Z,33.70
2022-12-11T01:11:17.875Z,30.20
2022-12-11T01:13:44.505Z,28.73
2022-12-11T01:16:14.508Z,34.53
2022-12-11T01:18:41.846Z,32.95
2022-12-11T01:21:09.437Z,28.88
2022-12-11T01:23:37.837Z,28.85
2022-12-11T01:26:06.153Z,29.40
2022-12-11T01:28:32.767Z,29.73
2022-12-11T01:30:59.514Z,30.00
2022-12-11T01:33:26.193Z,31.33
2022-12-11T01:35:52.864Z,30.63
2022-12-11T01:38:19.507Z,31.88
2022-12-11T01:40:54.156Z,29.07
2022-12-11T01:43:20.748Z,31.95
2022-12-11T01:45:48.923Z,32.00
2022-12-11T01:48:19.042Z,31.40
2022-12-11T01:50:49.250Z,28.92
2022-12-11T01:53:20.039Z,36.03
2022-12-11T01:55:51.196Z,26.83
2022-12-11T01:58:19.967Z,28.63
2022-12-11T02:00:46.878Z,29.67
2022-12-11T02:03:13.458Z,30.63
2022-12-11T02:05:40.111Z,29.37
2022-12-11T02:08:08.659Z,31.02
2022-12-11T02:11:00.078Z,31.33
2022-12-11T02:13:33.291Z,31.63
2022-12-11T02:16:06.628Z,26.73
2022-12-11T02:18:38.944Z,32.30
2022-12-11T02:21:10.813Z,30.50
2022-12-11T02:24:06.885Z,30.15
2022-12-11T02:26:57.072Z,32.97
2022-12-11T02:29:33.367Z,27.33
2022-12-11T02:32:04.410Z,26.37
2022-12-11T02:34:37.385Z,30.95
2022-12-11T02:37:09.216Z,32.45
2022-12-11T02:39:40.278Z,29.85
2022-12-11T02:42:08.752Z,29.90
2022-12-11T02:44:38.072Z,32.53
2022-12-11T02:47:12.122Z,31.83
2022-12-11T02:49:41.746Z,27.75
2022-12-11T02:52:12.124Z,30.05
2022-12-11T02:54:41.122Z,32.92
2022-12-11T02:57:11.858Z,33.53
2022-12-11T02:59:42.634Z,28.70
2022-12-11T03:02:10.815Z,32.95
2022-12-11T03:04:37.854Z,30.83
2022-12-11T03:07:09.630Z,27.55
2022-12-11T03:09:36.247Z,32.40
2022-12-11T03:12:03.129Z,27.40
2022-12-11T03:14:29.804Z,30.40
2022-12-11T03:17:05.277Z,30.65
2022-12-11T03:19:36.294Z,31.05
2022-12-11T03:22:10.443Z,29.17
2022-12-11T03:24:41.339Z,30.65
2022-12-11T03:27:15.620Z,28.95
2022-12-11T03:29:50.338Z,29.40
2022-12-11T03:32:21.209Z,27.50
2022-12-11T03:34:56.935Z,29.67
2022-12-11T03:37:27.681Z,25.30
2022-12-11T03:39:59.553Z,28.17
2022-12-11T03:42:26.976Z,30.63
2022-12-11T03:44:55.055Z,30.65
2022-12-11T03:47:25.777Z,31.30
2022-12-11T03:49:53.875Z,29.13
2022-12-11T03:52:21.857Z,28.30
2022-12-11T03:54:50.790Z,30.77
2022-12-11T03:57:21.593Z,30.02
2022-12-11T03:59:49.605Z,30.53
2022-12-11T04:02:16.215Z,32.03
2022-12-11T04:04:44.303Z,32.30
2022-12-11T04:07:10.951Z,32.80
2022-12-11T04:09:37.582Z,31.95
2022-12-11T04:12:04.411Z,31.87
2022-12-11T04:14:30.973Z,28.42
2022-12-11T04:16:59.062Z,29.55
2022-12-11T04:19:26.187Z,28.27
2022-12-11T04:21:54.246Z,32.13
2022-12-11T04:24:21.049Z,27.67
2022-12-11T04:26:47.651Z,25.88
2022-12-11T04:29:15.290Z,28.27
2022-12-11T04:31:41.952Z,29.63
2022-12-11T04:34:08.664Z,32.08
2022-12-11T04:36:35.299Z,31.20
2022-12-11T04:39:04.599Z,30.83
2022-12-11T04:41:31.556Z,27.52
2022-12-11T04:43:58.128Z,28.52
2022-12-11T04:46:25.144Z,29.02
2022-12-11T04:48:57.427Z,29.00
2022-12-11T04:51:24.830Z,30.83
2022-12-11T04:53:51.619Z,27.48
2022-12-11T04:56:19.715Z,30.15
2022-12-11T04:58:47.042Z,29.25
2022-12-11T05:01:16.237Z,29.40
2022-12-11T05:03:43.264Z,30.98
2022-12-11T05:06:10.855Z,28.48
2022-12-11T05:08:39.189Z,30.23
2022-12-11T05:11:07.200Z,30.17
2022-12-11T05:13:35.154Z,26.00
2022-12-11T05:16:05.358Z,27.38
2022-12-11T05:18:32.043Z,27.20
2022-12-11T05:21:00.130Z,31.45
2022-12-11T05:23:26.977Z,29.05
2022-12-11T05:25:54.167Z,29.70
2022-12-11T05:28:21.433Z,27.23
2022-12-11T05:30:49.625Z,29.13
2022-12-11T05:33:16.271Z,24.60
2022-12-11T05:35:47.198Z,29.02
2022-12-11T05:38:13.841Z,25.50
2022-12-11T05:40:40.538Z,27.25
2022-12-11T05:43:07.250Z,26.60
2022-12-11T05:45:34.325Z,27.92
2022-12-11T05:48:02.619Z,29.13
2022-12-11T05:50:29.250Z,26.17
2022-12-11T05:52:55.917Z,29.85
2022-12-11T05:55:22.594Z,21.98
2022-12-11T05:57:49.299Z,26.05
2022-12-11T06:00:18.881Z,27.77
2022-12-11T06:02:45.523Z,27.87
2022-12-11T06:05:13.799Z,30.70
2022-12-11T06:07:40.492Z,27.75
2022-12-11T06:10:07.743Z,28.15
2022-12-11T06:12:34.321Z,26.70
2022-12-11T06:15:00.981Z,23.87
2022-12-11T06:17:27.715Z,27.13
2022-12-11T06:19:54.337Z,24.92
2022-12-11T06:22:22.302Z,25.92
2022-12-11T06:24:48.888Z,25.50
2022-12-11T06:27:15.521Z,29.53
2022-12-11T06:29:42.117Z,34.13
2022-12-11T06:32:08.871Z,28.27
2022-12-11T06:34:35.467Z,27.50
2022-12-11T06:37:02.295Z,25.45
2022-12-11T06:39:30.405Z,28.60
2022-12-11T06:41:57.020Z,29.30
2022-12-11T06:44:23.598Z,28.92
2022-12-11T06:46:50.408Z,30.23
2022-12-11T06:49:17.006Z,29.48
2022-12-11T06:51:43.606Z,28.50
2022-12-11T06:54:10.245Z,31.05
2022-12-11T06:56:38.201Z,29.33
2022-12-11T06:59:07.504Z,29.35
2022-12-11T07:01:34.439Z,28.50
2022-12-11T07:04:01.030Z,30.57
2022-12-11T07:06:28.760Z,30.13
2022-12-11T07:08:55.820Z,29.52
2022-12-11T07:11:22.616Z,26.60
2022-12-11T07:13:50.665Z,32.55
2022-12-11T07:16:18.420Z,33.27
2022-12-11T07:18:48.254Z,32.75
2022-12-11T07:21:15.173Z,26.83
2022-12-11T07:23:41.964Z,35.60
2022-12-11T07:26:10.924Z,40.65
2022-12-11T07:28:37.780Z,38.90
2022-12-11T07:31:10.517Z,50.05
2022-12-11T07:33:37.719Z,39.22
2022-12-11T07:36:06.080Z,34.10
2022-12-11T07:38:32.833Z,27.42
2022-12-11T07:41:01.246Z,29.20
2022-12-11T07:43:27.827Z,29.63
2022-12-11T07:45:54.603Z,30.40
2022-12-11T07:48:22.578Z,34.10
2022-12-11T07:50:49.221Z,29.10
2022-12-11T07:53:15.794Z,27.83
2022-12-11T07:55:42.415Z,30.60
2022-12-11T07:58:09.028Z,29.45
2022-12-11T08:00:35.676Z,25.88
2022-12-11T08:03:02.643Z,25.95
2022-12-11T08:05:30.661Z,28.37
2022-12-11T08:07:57.254Z,34.45
2022-12-11T08:10:24.046Z,36.55
2022-12-11T08:12:50.621Z,33.58
2022-12-11T08:15:17.301Z,31.30
2022-12-11T08:17:44.033Z,34.03
2022-12-11T08:20:10.685Z,31.40
2022-12-11T08:22:38.928Z,29.70
2022-12-11T08:25:06.551Z,27.85
2022-12-11T08:27:33.197Z,27.23
2022-12-11T08:29:59.781Z,27.43
2022-12-11T08:32:26.377Z,24.83
2022-12-11T08:34:53.077Z,25.25
2022-12-11T08:37:19.719Z,23.88
2022-12-11T08:39:47.714Z,24.60
2022-12-11T08:42:14.282Z,25.20
2022-12-11T08:44:40.951Z,23.60
2022-12-11T08:47:07.769Z,20.75
2022-12-11T08:49:34.827Z,20.80
2022-12-11T08:52:02.852Z,23.15
2022-12-11T08:54:29.534Z,19.50
2022-12-11T08:56:58.381Z,18.35
2022-12-11T08:59:25.528Z,20.25
2022-12-11T09:01:53.517Z,20.00
2022-12-11T09:04:20.171Z,24.67
2022-12-11T09:06:46.770Z,27.60
2022-12-11T09:09:13.419Z,23.42
2022-12-11T09:11:40.422Z,21.38
2022-12-11T09:14:08.495Z,21.60
2022-12-11T09:16:36.299Z,23.02
2022-12-11T09:19:03.434Z,24.80
2022-12-11T09:21:30.741Z,23.33
2022-12-11T09:23:59.594Z,21.67
2022-12-11T09:26:28.054Z,21.83
2022-12-11T09:28:54.977Z,24.33
2022-12-11T09:31:25.406Z,23.77
2022-12-11T09:33:55.291Z,23.08
2022-12-11T09:36:22.394Z,21.33
2022-12-11T09:38:50.879Z,21.80
2022-12-11T09:41:36.693Z,22.48
2022-12-11T09:44:16.309Z,19.90
2022-12-11T09:46:45.620Z,20.48
2022-12-11T09:49:23.663Z,19.95
2022-12-11T09:51:56.373Z,20.00
2022-12-11T09:54:23.096Z,18.40
2022-12-11T09:56:56.799Z,20.83
2022-12-11T09:59:31.904Z,18.63
2022-12-11T10:02:11.969Z,20.67
2022-12-11T10:04:51.912Z,18.33
2022-12-11T10:07:28.815Z,17.35
2022-12-11T10:10:02.833Z,17.77
2022-12-11T10:12:39.427Z,18.45
2022-12-11T10:15:18.629Z,17.15
2022-12-11T10:17:47.937Z,16.33
2022-12-11T10:20:20.849Z,19.10
2022-12-11T10:22:49.087Z,20.37
2022-12-11T10:25:20.982Z,21.80
2022-12-11T10:27:47.622Z,21.75
2022-12-11T10:30:17.383Z,21.40
2022-12-11T10:32:51.404Z,19.17
2022-12-11T10:35:29.499Z,20.23
2022-12-11T10:38:01.530Z,21.10
2022-12-11T10:40:30.802Z,21.25
2022-12-11T10:42:57.428Z,20.95
2022-12-11T10:45:24.019Z,22.15
2022-12-11T10:48:02.177Z,23.40
2022-12-11T10:50:28.759Z,20.50
2022-12-11T10:52:55.891Z,22.98
2022-12-11T10:55:27.178Z,22.45
2022-12-11T10:57:59.963Z,23.20
2022-12-11T11:00:33.946Z,22.00
2022-12-11T11:03:03.044Z,22.73
2022-12-11T11:05:31.820Z,22.48
2022-12-11T11:08:13.600Z,21.65
2022-12-11T11:10:50.758Z,28.27
2022-12-11T11:13:17.378Z,23.83
2022-12-11T11:15:44.967Z,30.00
2022-12-11T11:18:26.224Z,24.42
2022-12-11T11:20:53.518Z,22.67
2022-12-11T11:23:21.339Z,23.48
2022-12-11T11:25:54.929Z,22.73
2022-12-11T11:28:25.750Z,20.30
2022-12-11T11:31:04.219Z,19.13
2022-12-11T11:33:34.182Z,20.42
2022-12-11T11:36:02.920Z,18.60
2022-12-11T11:38:33.004Z,20.67
2022-12-11T11:41:14.776Z,21.10
2022-12-11T11:43:45.789Z,20.63
2022-12-11T11:46:15.326Z,18.48
2022-12-11T11:48:54.048Z,19.42
2022-12-11T11:51:26.942Z,19.00
2022-12-11T11:53:57.760Z,17.45
2022-12-11T11:56:27.164Z,19.17
2022-12-11T11:59:14.168Z,21.77
2022-12-11T12:01:41.782Z,21.58
2022-12-11T12:04:10.859Z,20.57
2022-12-11T12:07:08.029Z,15.93
2022-12-11T12:09:45.477Z,13.32
2022-12-11T12:12:24.731Z,14.38
2022-12-11T12:15:08.454Z,18.20
2022-12-11T12:17:48.145Z,15.63
2022-12-11T12:20:27.207Z,17.95
2022-12-11T12:23:07.821Z,17.05
2022-12-11T12:25:38.991Z,18.52
2022-12-11T12:28:16.214Z,15.10
2022-12-11T12:30:54.343Z,17.00
2022-12-11T12:33:32.593Z,15.18
2022-12-11T12:36:11.203Z,11.68
2022-12-11T12:38:49.648Z,14.38
2022-12-11T12:41:20.706Z,11.98
2022-12-11T12:44:06.947Z,14.27
2022-12-11T12:46:46.658Z,12.48
2022-12-11T12:49:30.773Z,14.55
2022-12-11T12:51:59.798Z,11.65
2022-12-11T12:54:29.268Z,11.68
2022-12-11T12:56:56.755Z,11.53
2022-12-11T12:59:24.894Z,11.45
2022-12-11T13:01:54.825Z,12.70
2022-12-11T13:07:29.042Z,12.77
2022-12-11T13:09:58.733Z,11.43
2022-12-11T13:12:33.581Z,10.75
2022-12-11T13:15:01.046Z,11.20
2022-12-11T13:17:36.690Z,11.73
2022-12-11T13:20:12.963Z,16.52
2022-12-11T13:22:51.258Z,14.63
2022-12-11T13:25:25.943Z,10.82
2022-12-11T13:27:52.861Z,12.40
2022-12-11T13:30:25.255Z,8.32
2022-12-11T13:33:01.211Z,8.13
2022-12-11T13:35:28.550Z,9.50
2022-12-11T13:38:03.004Z,8.90
2022-12-11T13:40:36.951Z,9.13
2022-12-11T13:43:06.263Z,10.48
2022-12-11T13:45:39.632Z,10.57
2022-12-11T13:48:17.959Z,13.23
2022-12-11T13:50:45.271Z,10.95
2022-12-11T13:53:16.677Z,13.50
2022-12-11T13:55:43.795Z,13.23
2022-12-11T13:58:18.270Z,14.80
2022-12-11T14:00:55.479Z,16.17
2022-12-11T14:03:23.602Z,12.88
2022-12-11T14:05:50.725Z,13.15
2022-12-11T14:08:23.593Z,14.02
2022-12-11T14:10:53.274Z,16.60
2022-12-11T14:13:24.934Z,16.43
2022-12-11T14:15:52.724Z,14.90
2022-12-11T14:18:23.699Z,17.48
2022-12-11T14:20:55.171Z,15.85
2022-12-11T14:23:25.233Z,16.25
2022-12-11T14:25:53.217Z,15.23
2022-12-11T14:28:20.059Z,17.02
2022-12-11T14:30:49.951Z,17.35
2022-12-11T14:33:18.820Z,16.27
2022-12-11T14:35:46.705Z,14.68
2022-12-11T14:38:16.958Z,17.20
2022-12-11T14:40:48.826Z,18.25
2022-12-11T14:43:22.557Z,18.75
2022-12-11T14:45:53.642Z,18.88
2022-12-11T14:48:23.745Z,20.55
2022-12-11T14:50:53.412Z,19.97
2022-12-11T14:53:23.394Z,22.25
2022-12-11T14:55:52.377Z,19.48
2022-12-11T14:58:21.557Z,23.35
2022-12-11T15:00:57.303Z,18.77
2022-12-11T15:03:29.993Z,16.17
2022-12-11T15:05:58.064Z,20.00
2022-12-11T15:08:28.476Z,20.13
2022-12-11T15:11:09.026Z,18.10
2022-12-11T15:13:38.925Z,15.85
2022-12-11T15:16:07.721Z,18.53
2022-12-11T15:18:37.130Z,18.20
2022-12-11T15:21:06.246Z,13.52
2022-12-11T15:23:36.960Z,16.38
2022-12-11T15:26:03.752Z,13.98
2022-12-11T15:28:34.151Z,14.97
2022-12-11T15:31:03.120Z,14.00
2022-12-11T15:33:34.264Z,15.98
2022-12-11T15:36:02.864Z,14.30
2022-12-11T15:38:34.855Z,14.27
2022-12-11T15:41:02.502Z,15.03
2022-12-11T15:43:34.381Z,14.23
2022-12-11T15:46:01.495Z,18.65
2022-12-11T15:48:28.207Z,23.85
2022-12-11T15:50:54.960Z,29.40
2022-12-11T15:53:21.659Z,26.33
2022-12-11T15:55:48.672Z,27.35
2022-12-11T15:58:17.213Z,32.05
2022-12-11T16:00:45.551Z,25.52
2022-12-11T16:03:13.250Z,18.23
2022-12-11T16:05:40.268Z,19.43
2022-12-11T16:08:06.997Z,16.17
2022-12-11T16:10:33.929Z,21.02
2022-12-11T16:13:00.625Z,15.50
2022-12-11T16:15:27.542Z,16.15
2022-12-11T16:18:01.973Z,15.87
2022-12-11T16:20:29.194Z,16.65
2022-12-11T16:22:55.860Z,15.50
2022-12-11T16:25:24.687Z,16.00
2022-12-11T16:27:51.309Z,16.20
2022-12-11T16:30:17.985Z,17.93
2022-12-11T16:32:44.667Z,14.85
2022-12-11T16:35:13.066Z,19.17
2022-12-11T16:37:39.925Z,17.08
2022-12-11T16:40:07.407Z,26.92
2022-12-11T16:42:34.125Z,25.57
2022-12-11T16:45:05.259Z,23.95
2022-12-11T16:47:31.900Z,29.77
2022-12-11T16:49:58.822Z,24.02
2022-12-11T16:52:26.886Z,22.80
2022-12-11T16:54:53.477Z,20.23
2022-12-11T16:57:20.404Z,24.20
2022-12-11T16:59:47.472Z,22.58
2022-12-11T17:02:14.408Z,18.85
2022-12-11T17:04:41.114Z,20.33
2022-12-11T17:07:08.029Z,18.30
2022-12-11T17:09:36.175Z,20.30
2022-12-11T17:12:02.996Z,18.13
2022-12-11T17:14:29.687Z,19.80
2022-12-11T17:16:56.540Z,21.35
2022-12-11T17:19:23.367Z,22.73
2022-12-11T17:21:51.597Z,20.73
2022-12-11T17:24:18.585Z,19.02
2022-12-11T17:26:46.578Z,21.73
2022-12-11T17:29:13.777Z,20.25
2022-12-11T17:31:40.565Z,21.83
2022-12-11T17:34:07.617Z,22.27
2022-12-11T17:36:34.546Z,21.45
2022-12-11T17:39:01.395Z,22.52
2022-12-11T17:41:28.050Z,23.13
2022-12-11T17:43:56.095Z,24.30
2022-12-11T17:46:23.241Z,19.63
2022-12-11T17:48:49.890Z,21.50
2022-12-11T17:51:17.655Z,20.88
2022-12-11T17:53:44.259Z,22.48
2022-12-11T17:56:10.842Z,22.13
2022-12-11T17:58:37.517Z,31.98
2022-12-11T18:01:08.953Z,28.60
2022-12-11T18:03:37.370Z,30.73
2022-12-11T18:06:06.234Z,26.73
2022-12-11T18:08:33.320Z,21.70
2022-12-11T18:11:04.790Z,21.95
2022-12-11T18:13:31.407Z,25.38
2022-12-11T18:16:02.798Z,22.98
2022-12-11T18:18:31.050Z,25.13
2022-12-11T18:20:57.938Z,25.47
2022-12-11T18:23:24.820Z,25.88
2022-12-11T18:25:51.531Z,26.90
2022-12-11T18:28:18.217Z,25.60
2022-12-11T18:30:45.215Z,25.35
2022-12-11T18:33:11.881Z,22.60
2022-12-11T18:35:40.633Z,24.45
2022-12-11T18:38:07.560Z,24.10
2022-12-11T18:40:34.250Z,20.65
2022-12-11T18:43:01.082Z,21.30
2022-12-11T18:45:27.806Z,20.40
2022-12-11T18:47:54.569Z,19.50
2022-12-11T18:50:21.194Z,23.42
2022-12-11T18:52:52.888Z,17.98
2022-12-11T18:55:19.532Z,21.35
2022-12-11T18:57:46.329Z,21.07
2022-12-11T19:00:14.476Z,18.17
2022-12-11T19:02:41.113Z,17.65
2022-12-11T19:05:08.311Z,19.55
2022-12-11T19:07:34.886Z,23.42
2022-12-11T19:10:16.900Z,22.53
2022-12-11T19:12:43.463Z,21.23
2022-12-11T19:15:11.146Z,20.95
2022-12-11T19:17:38.138Z,17.38
2022-12-11T19:20:39.856Z,19.40
2022-12-11T19:22:52.646Z,18.03
2022-12-11T19:25:20.771Z,19.92
2022-12-11T19:27:47.499Z,23.75
2022-12-11T19:30:14.168Z,22.08
2022-12-11T19:32:40.711Z,16.67
2022-12-11T19:35:10.431Z,19.00
2022-12-11T19:37:37.234Z,17.92
2022-12-11T19:40:04.807Z,18.38
2022-12-11T19:42:33.209Z,18.90
2022-12-11T19:44:59.849Z,18.17
2022-12-11T19:47:26.445Z,18.03
2022-12-11T19:49:53.347Z,19.85
2022-12-11T19:52:19.973Z,17.70
2022-12-11T19:54:46.632Z,19.48
2022-12-11T19:57:13.202Z,21.13
2022-12-11T19:59:41.307Z,21.40
2022-12-11T20:02:07.987Z,26.83
2022-12-11T20:04:34.615Z,27.65
2022-12-11T20:07:01.209Z,19.10
2022-12-11T20:09:27.884Z,21.48
2022-12-11T20:11:54.503Z,19.30
2022-12-11T20:14:23.017Z,19.77
2022-12-11T20:19:38.816Z,17.65
2022-12-11T20:22:05.472Z,21.13
2022-12-11T20:24:32.090Z,19.63
2022-12-11T20:26:58.720Z,20.33
2022-12-11T20:29:25.353Z,17.73
2022-12-11T20:31:53.430Z,17.42
2022-12-11T20:34:20.248Z,20.90
2022-12-11T20:36:47.611Z,23.27
2022-12-11T20:39:14.385Z,19.63
2022-12-11T20:41:41.021Z,20.42
2022-12-11T20:44:07.588Z,20.92
2022-12-11T20:46:34.395Z,21.38
2022-12-11T20:49:02.437Z,21.57
2022-12-11T20:51:29.238Z,20.55
2022-12-11T20:53:56.509Z,21.02
2022-12-11T20:56:24.001Z,19.67
2022-12-11T20:58:50.663Z,21.20
2022-12-11T21:01:19.296Z,21.97
2022-12-11T21:03:46.456Z,20.88
2022-12-11T21:06:19.659Z,24.13
2022-12-11T21:08:46.241Z,22.33
2022-12-11T21:11:12.964Z,28.17
2022-12-11T21:13:39.521Z,26.57
2022-12-11T21:16:07.478Z,25.33
2022-12-11T21:18:34.273Z,26.40
2022-12-11T21:21:00.916Z,18.85
2022-12-11T21:23:28.932Z,18.00
2022-12-11T21:25:55.842Z,18.87
2022-12-11T21:28:22.561Z,17.83
2022-12-11T21:30:49.186Z,21.58
2022-12-11T21:33:15.907Z,20.55
2022-12-11T21:35:42.542Z,15.60
2022-12-11T21:38:09.246Z,18.33
2022-12-11T21:40:37.219Z,15.90
2022-12-11T21:43:04.045Z,16.33
2022-12-11T21:46:00.543Z,17.60
2022-12-11T21:48:21.815Z,16.88
2022-12-11T21:50:48.440Z,17.30
2022-12-11T21:53:15.063Z,18.08
2022-12-11T21:55:43.076Z,16.02
2022-12-11T21:58:09.782Z,17.73
2022-12-11T22:00:37.028Z,19.02
2022-12-11T22:03:04.320Z,19.87
2022-12-11T22:05:31.153Z,18.40
2022-12-11T22:07:57.840Z,18.25
2022-12-11T22:10:24.402Z,20.75
2022-12-11T22:12:52.341Z,21.10
2022-12-11T22:15:19.063Z,19.90
2022-12-11T22:17:45.745Z,18.15
2022-12-11T22:20:12.416Z,16.52
2022-12-11T22:22:38.985Z,16.70
2022-12-11T22:25:06.419Z,19.60
2022-12-11T22:27:33.040Z,21.33
2022-12-11T22:30:01.059Z,18.75
2022-12-11T22:32:27.694Z,17.85
2022-12-11T22:34:54.443Z,18.50
2022-12-11T22:37:21.039Z,14.73
2022-12-11T22:39:47.833Z,19.90
2022-12-11T22:42:14.404Z,17.02
2022-12-11T22:44:41.075Z,16.85
2022-12-11T22:47:09.058Z,20.95
2022-12-11T22:49:35.939Z,18.00
2022-12-11T22:52:02.834Z,19.83
2022-12-11T22:54:29.428Z,16.75
2022-12-11T22:56:56.055Z,18.30
2022-12-11T22:59:23.049Z,18.00
2022-12-11T23:01:49.670Z,17.15
2022-12-11T23:04:17.624Z,18.57
2022-12-11T23:06:44.181Z,17.55
2022-12-11T23:09:11.499Z,18.30
2022-12-11T23:11:39.407Z,21.98
2022-12-11T23:14:08.324Z,17.88
2022-12-11T23:16:35.199Z,17.70
2022-12-11T23:19:02.398Z,19.98
2022-12-11T23:21:30.419Z,17.90
2022-12-11T23:23:58.032Z,19.13
2022-12-11T23:26:24.680Z,19.92
2022-12-11T23:28:51.337Z,19.50
2022-12-11T23:31:18.278Z,19.65
2022-12-11T23:33:45.058Z,21.08
2022-12-11T23:36:11.968Z,18.30
2022-12-11T23:38:40.818Z,20.13
2022-12-11T23:41:09.200Z,17.50
2022-12-11T23:43:37.237Z,19.83
2022-12-11T23:46:04.265Z,19.60
2022-12-11T23:48:30.920Z,16.52
2022-12-11T23:50:58.908Z,19.05
2022-12-11T23:53:25.641Z,19.60
2022-12-11T23:55:53.913Z,17.73
2022-12-11T23:58:20.703Z,21.45
